Midland, MI

1:16 PM EDT on May 23, 2018 (GMT -0400)
Barstow

Weather History for KIKW - April, 2014

Change the Weather History Date:

Sunday, April 20, 2014

  Actual Average (KMBS) Record (KMBS)
Temperature  
Mean Temperature 51 °F -  
Max Temperature 71 °F 56 °F 73 °F (2006)
Min Temperature 31 °F 35 °F 26 °F (1997)
Degree Days  
Heating Degree Days 14    
Growing Degree Days 1 (Base 50)    
Moisture  
Dew Point 31 °F    
Average Humidity 51    
Maximum Humidity 96    
Minimum Humidity 19    
Precipitation  
Precipitation 0.00 in - - ()
Sea Level Pressure  
Sea Level Pressure 30.21 in    
Wind  
Wind Speed 3 mph (South)    
Max Wind Speed 13 mph    
Max Gust Speed 17 mph    
Visibility 10 miles    
Events      
Averages and records for this station are not official NWS values.
T = Trace of Precipitation, MM = Missing Value Source: NWS Daily Summary

Daily Weather History Graph

Daily Weather History Graph

Search for Another Location

Airport or City:

Astronomy

Apr. 20, 2014 Rise Set
Actual Time 6:46 AM EDT 8:26 PM EDT
Civil Twilight 6:15 AM EDT 8:56 PM EDT
Nautical Twilight 5:39 AM EDT 9:33 PM EDT
Astronomical Twilight 4:59 AM EDT 10:13 PM EDT
Moon 1:09 AM EDT (4/20) 11:01 AM EDT (4/20)
Length of Visible Light 14h 41m
Length of Day
13h 40m
Waning Gibbous, 69% of the Moon is Illuminated
Apr 20
Waning Gibbous
Apr 22
Last Quarter
Apr 29
New
May 6
First Quarter
May 14
Full

Hourly Weather History & Observations

Time (EDT) Temp. Windchill Dew Point Humidity Pressure Visibility Wind Dir Wind Speed Gust Speed Precip Events Conditions
12:13 AM 38.8 °F 36.5 °F 33.8 °F 82% 30.33 in 10.0 mi East 3.5 mph - N/A   Clear
12:32 AM 38.1 °F - 33.3 °F 83% 30.34 in 10.0 mi Calm Calm - N/A   Clear
12:53 AM 36.7 °F 34.1 °F 32.7 °F 86% 30.34 in 10.0 mi East 3.5 mph - N/A   Clear
1:13 AM 37.6 °F 35.1 °F 34.0 °F 87% 30.33 in 10.0 mi East 3.5 mph - N/A   Clear
1:32 AM 37.8 °F 35.3 °F 34.0 °F 86% 30.33 in 10.0 mi ENE 3.5 mph - N/A   Clear
1:53 AM 37.6 °F - 33.4 °F 85% 30.33 in 10.0 mi Calm Calm - N/A   Clear
2:13 AM 37.2 °F - 33.1 °F 85% 30.32 in 10.0 mi Calm Calm - N/A   Clear
2:33 AM 36.9 °F 34.3 °F 33.1 °F 86% 30.32 in 10.0 mi SE 3.5 mph - N/A   Clear
2:53 AM 36.7 °F - 32.2 °F 84% 30.31 in 10.0 mi Calm Calm - N/A   Clear
3:13 AM 34.9 °F - 31.8 °F 89% 30.32 in 10.0 mi Calm Calm - N/A   Clear
3:33 AM 34.5 °F - 32.4 °F 92% 30.32 in 10.0 mi Calm Calm - N/A   Clear
3:53 AM 33.1 °F - 31.1 °F 92% 30.32 in 10.0 mi Calm Calm - N/A   Clear
4:13 AM 34.0 °F - 32.0 °F 92% 30.32 in 10.0 mi Calm Calm - N/A   Clear
4:33 AM 33.4 °F - 32.0 °F 94% 30.31 in 10.0 mi Calm Calm - N/A   Clear
4:53 AM 33.4 °F - 32.0 °F 94% 30.31 in 7.0 mi Calm Calm - N/A   Clear
5:13 AM 34.0 °F - 32.2 °F 93% 30.32 in 7.0 mi Calm Calm - N/A   Clear
5:33 AM 32.0 °F - 30.7 °F 95% 30.31 in 7.0 mi Calm Calm - N/A   Clear
5:53 AM 32.2 °F - 31.1 °F 96% 30.30 in 7.0 mi Calm Calm - N/A   Clear
6:13 AM 32.0 °F - 30.9 °F 96% 30.30 in 7.0 mi Calm Calm - N/A   Clear
6:33 AM 32.0 °F - 30.4 °F 94% 30.30 in 7.0 mi Calm Calm - N/A   Clear
6:53 AM 31.6 °F - 29.8 °F 93% 30.29 in 10.0 mi Calm Calm - N/A   Clear
7:13 AM 33.6 °F - 31.8 °F 93% 30.29 in 10.0 mi Calm Calm - N/A   Clear
7:33 AM 32.9 °F - 31.1 °F 93% 30.29 in 7.0 mi Calm Calm - N/A   Clear
7:53 AM 35.6 °F - 33.1 °F 91% 30.29 in 10.0 mi Calm Calm - N/A   Clear
8:13 AM 39.2 °F - 36.1 °F 89% 30.29 in 10.0 mi Calm Calm - N/A   Clear
8:33 AM 42.8 °F 41.1 °F 33.3 °F 69% 30.29 in 10.0 mi SE 3.5 mph - N/A   Clear
8:52 AM 44.1 °F 41.5 °F 30.9 °F 60% 30.29 in 10.0 mi SSE 4.6 mph - N/A   Clear
9:13 AM 46.2 °F 43.3 °F 30.6 °F 54% 30.30 in 10.0 mi SSE 5.8 mph - N/A   Clear
9:33 AM 48.0 °F - 30.9 °F 52% 30.29 in 10.0 mi South 9.2 mph - N/A   Clear
9:52 AM 49.1 °F - 31.1 °F 50% 30.29 in 10.0 mi South 4.6 mph - N/A   Clear
10:13 AM 50.9 °F - 31.1 °F 47% 30.27 in 10.0 mi South 8.1 mph - N/A   Clear
10:33 AM 52.5 °F - 30.0 °F 42% 30.27 in 10.0 mi South 3.5 mph - N/A   Clear
10:52 AM 53.6 °F - 29.8 °F 40% 30.26 in 10.0 mi SSE 4.6 mph - N/A   Clear
11:13 AM 54.5 °F - 29.7 °F 39% 30.26 in 10.0 mi SSE 4.6 mph - N/A   Clear
11:33 AM 57.2 °F - 27.3 °F 32% 30.25 in 10.0 mi SW 8.1 mph - N/A   Clear
11:52 AM 57.7 °F - 26.6 °F 30% 30.25 in 10.0 mi SSW 4.6 mph - N/A   Clear
12:13 PM 59.0 °F - 27.3 °F 30% 30.24 in 10.0 mi South 5.8 mph - N/A   Clear
12:33 PM 61.0 °F - 29.1 °F 30% 30.23 in 10.0 mi South 4.6 mph - N/A   Clear
12:53 PM 61.7 °F - 27.0 °F 27% 30.22 in 10.0 mi South 6.9 mph - N/A   Clear
1:13 PM 63.1 °F - 26.6 °F 25% 30.21 in 10.0 mi South 9.2 mph - N/A   Clear
1:32 PM 64.8 °F - 27.1 °F 24% 30.20 in 10.0 mi South 9.2 mph - N/A   Clear
1:53 PM 66.6 °F - 27.3 °F 23% 30.20 in 10.0 mi SSE 6.9 mph - N/A   Clear
2:13 PM 66.7 °F - 27.1 °F 23% 30.19 in 10.0 mi SSE 6.9 mph - N/A   Clear
2:32 PM 67.6 °F - 28.2 °F 23% 30.17 in 10.0 mi South 6.9 mph - N/A   Clear
2:53 PM 68.4 °F - 26.4 °F 21% 30.16 in 10.0 mi SSW 9.2 mph - N/A   Clear
3:13 PM 68.7 °F - 28.2 °F 22% 30.16 in 10.0 mi SW 6.9 mph - N/A   Clear
3:32 PM 69.6 °F - 28.6 °F 22% 30.15 in 7.0 mi SSE 4.6 mph - N/A   Clear
3:53 PM 70.9 °F - 26.4 °F 19% 30.14 in 10.0 mi South 9.2 mph - N/A   Clear
4:13 PM 71.4 °F - 27.9 °F 20% 30.14 in 7.0 mi WSW 5.8 mph - N/A   Clear
4:32 PM 71.1 °F - 28.4 °F 20% 30.14 in 10.0 mi SW 11.5 mph 17.3 mph N/A   Clear
4:53 PM 70.9 °F - 26.2 °F 19% 30.13 in 7.0 mi SSW 8.1 mph - N/A   Clear
5:13 PM 71.4 °F - 28.0 °F 20% 30.12 in 10.0 mi South 8.1 mph - N/A   Clear
5:32 PM 71.8 °F - 26.8 °F 19% 30.12 in 10.0 mi South 12.7 mph - N/A   Clear
5:53 PM 71.1 °F - 26.4 °F 19% 30.11 in 10.0 mi SW 10.4 mph - N/A   Clear
6:13 PM 71.8 °F - 28.2 °F 20% 30.11 in 10.0 mi SSW 11.5 mph - N/A   Clear
6:32 PM 71.6 °F - 28.4 °F 20% 30.10 in 10.0 mi South 10.4 mph 16.1 mph N/A   Clear
6:53 PM 71.4 °F - 28.9 °F 21% 30.09 in 10.0 mi SW 6.9 mph - N/A   Clear
7:13 PM 68.9 °F - 30.6 °F 24% 30.09 in 10.0 mi SSW 5.8 mph - N/A   Clear
7:33 PM 69.3 °F - 30.0 °F 23% 30.09 in 10.0 mi SW 6.9 mph - N/A   Clear
7:53 PM 68.4 °F - 30.6 °F 25% 30.09 in 10.0 mi SSW 3.5 mph - N/A   Mostly Cloudy
8:13 PM 67.8 °F - 31.3 °F 26% 30.08 in 10.0 mi South 3.5 mph - N/A   Scattered Clouds
8:33 PM 67.6 °F - 30.4 °F 25% 30.08 in 10.0 mi SSW 3.5 mph - N/A   Clear
8:53 PM 65.1 °F - 32.0 °F 29% 30.08 in 10.0 mi SSW 3.5 mph - N/A   Unknown
9:13 PM 66.7 °F - 30.4 °F 26% 30.08 in 10.0 mi Calm Calm - N/A   Unknown
9:33 PM 63.5 °F - 33.3 °F 32% 30.08 in 10.0 mi Calm Calm - N/A   Unknown
9:53 PM 63.9 °F - 32.0 °F 30% 30.08 in 10.0 mi Calm Calm - N/A   Unknown
10:13 PM 63.7 °F - 32.0 °F 31% 30.07 in 10.0 mi Calm Calm - N/A   Unknown
10:33 PM 63.3 °F - 34.2 °F 34% 30.07 in 10.0 mi Calm Calm - N/A   Unknown
10:53 PM 63.1 °F - 33.1 °F 33% 30.07 in 10.0 mi Calm Calm - N/A   Unknown
11:13 PM 62.2 °F - 33.3 °F 34% 30.06 in 10.0 mi Calm Calm - N/A   Unknown
11:33 PM 61.5 °F - 32.7 °F 34% 30.06 in 10.0 mi Calm Calm - N/A   Unknown
11:53 PM 60.3 °F - 34.2 °F 38% 30.05 in 10.0 mi Calm Calm - N/A   Unknown